createdAt,value
2023-05-02T00:00:00.880Z,100122.38
2023-05-02T00:02:29.021Z,100128.53
2023-05-02T00:04:56.658Z,100127.72
2023-05-02T00:07:23.883Z,100127.75
2023-05-02T00:09:51.370Z,100120.03
2023-05-02T00:12:18.651Z,100118.28
2023-05-02T00:14:45.665Z,100114.84
2023-05-02T00:17:19.923Z,100111.41
2023-05-02T00:19:47.771Z,100113.16
2023-05-02T00:22:14.965Z,100096.00
2023-05-02T00:24:42.065Z,100099.34
2023-05-02T00:27:09.202Z,100095.94
2023-05-02T00:29:36.879Z,100101.13
2023-05-02T00:32:03.970Z,100102.06
2023-05-02T00:34:31.850Z,100093.44
2023-05-02T00:36:59.728Z,100090.81
2023-05-02T00:39:26.871Z,100089.13
2023-05-02T00:41:58.446Z,100082.28
2023-05-02T00:44:25.653Z,100086.59
2023-05-02T00:46:53.499Z,100087.50
2023-05-02T00:49:20.631Z,100074.63
2023-05-02T00:51:47.778Z,100082.38
2023-05-02T00:54:15.225Z,100088.47
2023-05-02T00:56:42.535Z,100084.16
2023-05-02T00:59:11.504Z,100075.56
2023-05-02T01:02:01.080Z,100072.13
2023-05-02T01:05:02.364Z,100078.25
2023-05-02T01:07:35.473Z,100072.25
2023-05-02T01:10:47.846Z,100070.50
2023-05-02T01:13:22.630Z,100067.09
2023-05-02T01:15:52.189Z,100072.28
2023-05-02T01:18:24.048Z,100063.69
2023-05-02T01:21:00.717Z,100077.47
2023-05-02T01:23:40.139Z,100070.56
2023-05-02T01:26:16.954Z,100062.81
2023-05-02T01:29:00.324Z,100067.22
2023-05-02T01:31:31.892Z,100063.78
2023-05-02T01:34:01.271Z,100063.78
2023-05-02T01:36:31.862Z,100061.19
2023-05-02T01:39:01.799Z,100053.41
2023-05-02T01:41:32.522Z,100062.03
2023-05-02T01:44:02.157Z,100056.91
2023-05-02T01:46:34.847Z,100066.31
2023-05-02T01:49:05.680Z,100064.59
2023-05-02T01:51:44.810Z,100055.16
2023-05-02T01:54:13.985Z,100054.25
2023-05-02T01:56:43.642Z,100041.34
2023-05-02T01:59:18.849Z,100041.25
2023-05-02T02:01:48.927Z,100049.84
2023-05-02T02:04:17.644Z,100051.56
2023-05-02T02:06:48.544Z,100042.97
2023-05-02T02:09:16.056Z,100042.91
2023-05-02T02:12:07.752Z,100042.88
2023-05-02T02:14:38.482Z,100039.38
2023-05-02T02:17:38.405Z,100037.63
2023-05-02T02:20:08.964Z,100034.19
2023-05-02T02:22:39.605Z,100041.16
2023-05-02T02:25:13.291Z,100030.81
2023-05-02T02:27:41.596Z,100034.25
2023-05-02T02:30:09.904Z,100040.28
2023-05-02T02:32:38.583Z,100036.91
2023-05-02T02:35:07.434Z,100041.16
2023-05-02T02:38:09.983Z,100046.38
2023-05-02T02:41:13.716Z,100048.16
2023-05-02T02:43:47.916Z,100054.19
2023-05-02T02:46:24.427Z,100055.03
2023-05-02T02:49:06.935Z,100054.16
2023-05-02T02:51:47.310Z,100051.56
2023-05-02T02:54:29.651Z,100046.44
2023-05-02T02:57:10.246Z,100061.00
2023-05-02T02:59:41.497Z,100062.75
2023-05-02T03:02:10.414Z,100065.28
2023-05-02T03:04:46.147Z,100073.91
2023-05-02T03:07:13.800Z,100066.19
2023-05-02T03:09:48.580Z,100075.56
2023-05-02T03:12:21.355Z,100077.25
2023-05-02T03:14:50.675Z,100082.38
2023-05-02T03:17:18.312Z,100072.91
2023-05-02T03:19:46.110Z,100078.91
2023-05-02T03:22:13.506Z,100077.25
2023-05-02T03:24:40.657Z,100078.91
2023-05-02T03:27:08.828Z,100086.69
2023-05-02T03:29:41.274Z,100082.44
2023-05-02T03:32:09.515Z,100081.50
2023-05-02T03:34:38.552Z,100078.00
2023-05-02T03:37:05.913Z,100083.19
2023-05-02T03:39:33.045Z,100088.41
2023-05-02T03:42:01.895Z,100091.00
2023-05-02T03:44:29.001Z,100084.19
2023-05-02T03:46:56.234Z,100096.25
2023-05-02T03:49:24.137Z,100096.19
2023-05-02T03:51:53.157Z,100089.28
2023-05-02T03:54:25.411Z,100092.66
2023-05-02T03:56:55.162Z,100103.88
2023-05-02T03:59:29.640Z,100099.56
2023-05-02T04:01:57.889Z,100103.84
2023-05-02T04:04:35.583Z,100102.94
2023-05-02T04:07:03.291Z,100109.88
2023-05-02T04:09:31.166Z,100115.03
2023-05-02T04:12:05.289Z,100109.88
2023-05-02T04:14:34.298Z,100109.84
2023-05-02T04:17:02.697Z,100110.69
2023-05-02T04:19:49.843Z,100116.72
2023-05-02T04:22:17.999Z,100113.28
2023-05-02T04:24:53.680Z,100116.75
2023-05-02T04:27:21.121Z,100125.41
2023-05-02T04:29:53.488Z,100124.47
2023-05-02T04:32:20.981Z,100123.56
2023-05-02T04:34:49.000Z,100133.91
2023-05-02T04:37:17.271Z,100127.00
2023-05-02T04:39:46.081Z,100129.59
2023-05-02T04:42:32.085Z,100139.97
2023-05-02T04:45:11.205Z,100139.13
2023-05-02T04:47:38.598Z,100140.00
2023-05-02T04:50:07.401Z,100127.09
2023-05-02T04:52:35.892Z,100151.25
2023-05-02T04:55:03.303Z,100139.13
2023-05-02T04:57:30.638Z,100146.00
2023-05-02T05:00:00.230Z,100144.25
2023-05-02T05:02:28.435Z,100133.91
2023-05-02T05:04:57.608Z,100140.78
2023-05-02T05:07:25.874Z,100142.50
2023-05-02T05:09:54.524Z,100142.50
2023-05-02T05:12:24.499Z,100152.81
2023-05-02T05:14:51.798Z,100160.59
2023-05-02T05:17:21.098Z,100168.44
2023-05-02T05:19:48.791Z,100173.59
2023-05-02T05:22:15.925Z,100174.47
2023-05-02T05:24:43.688Z,100184.81
2023-05-02T05:27:11.477Z,100182.25
2023-05-02T05:29:38.697Z,100190.88
2023-05-02T05:32:06.403Z,100192.53
2023-05-02T05:34:35.235Z,100187.44
2023-05-02T05:37:02.537Z,100190.88
2023-05-02T05:39:29.650Z,100191.78
2023-05-02T05:41:59.269Z,100199.50
2023-05-02T05:44:27.053Z,100207.31
2023-05-02T05:46:54.606Z,100204.72
2023-05-02T05:49:24.492Z,100208.16
2023-05-02T05:51:52.655Z,100213.34
2023-05-02T05:54:20.074Z,100204.78
2023-05-02T05:56:47.843Z,100209.06
2023-05-02T05:59:18.593Z,100221.97
2023-05-02T06:01:45.745Z,100227.19
2023-05-02T06:04:14.593Z,100241.81
2023-05-02T06:06:45.636Z,100246.25
2023-05-02T06:09:12.814Z,100256.63
2023-05-02T06:11:39.841Z,100256.69
2023-05-02T06:14:08.110Z,100254.94
2023-05-02T06:16:35.869Z,100266.16
2023-05-02T06:19:03.128Z,100261.88
2023-05-02T06:21:30.165Z,100270.44
2023-05-02T06:23:57.278Z,100271.28
2023-05-02T06:26:24.632Z,100272.13
2023-05-02T06:28:51.718Z,100273.81
2023-05-02T06:31:18.876Z,100285.00
2023-05-02T06:33:46.417Z,100272.97
2023-05-02T06:36:13.596Z,100288.47
2023-05-02T06:38:40.873Z,100285.88
2023-05-02T06:41:16.509Z,100281.47
2023-05-02T06:43:45.045Z,100278.84
2023-05-02T06:46:15.530Z,100285.72
2023-05-02T06:48:42.866Z,100285.72
2023-05-02T06:51:09.976Z,100285.66
2023-05-02T06:53:37.077Z,100295.13
2023-05-02T06:56:05.781Z,100287.28
2023-05-02T06:58:33.024Z,100288.09
2023-05-02T07:01:00.263Z,100280.13
2023-05-02T07:03:27.618Z,100279.06
2023-05-02T07:05:54.932Z,100272.72
2023-05-02T07:08:24.202Z,100274.19
2023-05-02T07:10:51.807Z,100270.44
2023-05-02T07:13:19.025Z,100263.16
2023-05-02T07:15:46.168Z,100269.78
2023-05-02T07:18:13.453Z,100267.81
2023-05-02T07:20:42.503Z,100264.13
2023-05-02T07:23:09.644Z,100269.09
2023-05-02T07:25:37.425Z,100283.53
2023-05-02T07:28:04.959Z,100289.41
2023-05-02T07:30:33.817Z,100283.63
2023-05-02T07:33:01.030Z,100288.00
2023-05-02T07:35:28.245Z,100285.53
2023-05-02T07:37:55.642Z,100297.34
2023-05-02T07:40:22.893Z,100292.06
2023-05-02T07:42:53.703Z,100292.66
2023-05-02T07:45:22.631Z,100299.25
2023-05-02T07:47:49.807Z,100301.38
2023-05-02T07:50:17.218Z,100306.41
2023-05-02T07:52:44.342Z,100311.00
2023-05-02T07:55:12.220Z,100308.59
2023-05-02T07:57:39.377Z,100314.06
2023-05-02T08:00:10.214Z,100313.56
2023-05-02T08:02:42.255Z,100312.38
2023-05-02T08:05:09.804Z,100322.22
2023-05-02T08:07:37.242Z,100318.50
2023-05-02T08:10:08.215Z,100331.00
2023-05-02T08:12:40.260Z,100332.59
2023-05-02T08:15:08.875Z,100334.88
2023-05-02T08:17:36.160Z,100344.91
2023-05-02T08:20:03.631Z,100337.53
2023-05-02T08:22:30.895Z,100342.34
2023-05-02T08:24:58.173Z,100338.50
2023-05-02T08:27:25.409Z,100346.84
2023-05-02T08:29:52.577Z,100341.47
2023-05-02T08:32:19.826Z,100343.69
2023-05-02T08:34:46.908Z,100349.19
2023-05-02T08:37:14.022Z,100355.13
2023-05-02T08:39:41.265Z,100360.28
2023-05-02T08:42:08.973Z,100366.34
2023-05-02T08:44:37.348Z,100363.72
2023-05-02T08:47:06.926Z,100377.81
2023-05-02T08:49:36.612Z,100371.59
2023-05-02T08:52:06.928Z,100379.25
2023-05-02T08:54:34.620Z,100371.16
2023-05-02T08:57:04.462Z,100381.47
2023-05-02T08:59:31.860Z,100377.63
2023-05-02T09:02:12.207Z,100374.91
2023-05-02T09:04:41.574Z,100380.94
2023-05-02T09:07:10.731Z,100379.22
2023-05-02T09:09:38.160Z,100380.25
2023-05-02T09:12:05.449Z,100375.34
2023-05-02T09:14:33.046Z,100375.34
2023-05-02T09:17:01.235Z,100390.44
2023-05-02T09:19:28.564Z,100389.72
2023-05-02T09:22:02.382Z,100387.25
2023-05-02T09:24:30.186Z,100390.19
2023-05-02T09:27:03.398Z,100395.78
2023-05-02T09:29:36.530Z,100392.97
2023-05-02T09:32:05.564Z,100405.00
2023-05-02T09:34:37.496Z,100399.50
2023-05-02T09:37:05.828Z,100408.16
2023-05-02T09:39:33.013Z,100407.44
2023-05-02T09:42:00.226Z,100408.44
2023-05-02T09:44:37.000Z,100405.53
2023-05-02T09:47:04.420Z,100414.72
2023-05-02T09:49:43.020Z,100414.59
2023-05-02T09:52:12.382Z,100425.22
2023-05-02T09:54:39.514Z,100424.69
2023-05-02T09:57:07.565Z,100426.50
2023-05-02T09:59:34.961Z,100424.56
2023-05-02T10:02:04.638Z,100432.56
2023-05-02T10:04:32.952Z,100441.94
2023-05-02T10:07:02.366Z,100439.34
2023-05-02T10:09:34.452Z,100443.03
2023-05-02T10:12:08.493Z,100439.25
2023-05-02T10:14:43.622Z,100447.19
2023-05-02T10:17:23.503Z,100436.34
2023-05-02T10:20:08.087Z,100450.06
2023-05-02T10:22:37.000Z,100452.88
2023-05-02T10:25:05.367Z,100451.31
2023-05-02T10:27:33.120Z,100453.25
2023-05-02T10:30:02.560Z,100454.09
2023-05-02T10:32:31.600Z,100457.84
2023-05-02T10:35:04.169Z,100458.59
2023-05-02T10:37:36.707Z,100448.94
2023-05-02T10:40:06.136Z,100457.31
2023-05-02T10:42:39.522Z,100464.94
2023-05-02T10:45:12.461Z,100463.13
2023-05-02T10:47:39.696Z,100455.47
2023-05-02T10:50:08.771Z,100458.69
2023-05-02T10:52:38.556Z,100451.34
2023-05-02T10:55:21.951Z,100464.34
2023-05-02T10:57:58.646Z,100466.97
2023-05-02T11:00:30.302Z,100463.44
2023-05-02T11:02:57.969Z,100463.97
2023-05-02T11:05:26.494Z,100460.06
2023-05-02T11:08:15.627Z,100471.50
2023-05-02T11:10:43.563Z,100476.53
2023-05-02T11:13:10.682Z,100472.78
2023-05-02T11:15:41.170Z,100475.34
2023-05-02T11:18:13.081Z,100475.28
2023-05-02T11:20:45.164Z,100478.41
2023-05-02T11:23:22.039Z,100480.59
2023-05-02T11:25:51.338Z,100483.88
2023-05-02T11:28:38.676Z,100481.75
2023-05-02T11:31:29.991Z,100475.00
2023-05-02T11:34:02.273Z,100476.41
2023-05-02T11:36:34.655Z,100478.63
2023-05-02T11:39:18.419Z,100484.38
2023-05-02T11:41:47.678Z,100485.31
2023-05-02T11:44:14.880Z,100484.53
2023-05-02T11:46:42.413Z,100489.16
2023-05-02T11:49:11.036Z,100498.50
2023-05-02T11:51:39.253Z,100501.06
2023-05-02T11:54:08.116Z,100500.91
2023-05-02T11:56:35.241Z,100498.09
2023-05-02T11:59:03.802Z,100505.72
2023-05-02T12:01:31.224Z,100515.50
2023-05-02T12:04:07.254Z,100515.97
2023-05-02T12:06:35.198Z,100509.50
2023-05-02T12:09:19.366Z,100516.66
2023-05-02T12:11:52.464Z,100520.59
2023-05-02T12:14:30.888Z,100522.16
2023-05-02T12:16:59.572Z,100522.31
2023-05-02T12:19:27.661Z,100525.44
2023-05-02T12:21:54.943Z,100530.56
2023-05-02T12:24:25.202Z,100535.94
2023-05-02T12:27:09.446Z,100531.41
2023-05-02T12:29:44.021Z,100544.00
2023-05-02T12:32:12.578Z,100546.03
2023-05-02T12:34:40.501Z,100556.44
2023-05-02T12:37:09.219Z,100552.66
2023-05-02T12:39:41.334Z,100555.38
2023-05-02T12:42:16.294Z,100546.09
2023-05-02T12:44:45.797Z,100560.38
2023-05-02T12:47:14.943Z,100555.50
2023-05-02T12:50:00.631Z,100564.03
2023-05-02T12:52:48.546Z,100566.59
2023-05-02T12:55:20.106Z,100567.69
2023-05-02T12:57:47.685Z,100565.38
2023-05-02T13:00:18.255Z,100571.81
2023-05-02T13:02:45.330Z,100569.34
2023-05-02T13:05:16.294Z,100587.09
2023-05-02T13:07:43.746Z,100597.31
2023-05-02T13:10:12.247Z,100604.22
2023-05-02T13:12:39.920Z,100604.22
2023-05-02T13:15:08.362Z,100601.34
2023-05-02T13:17:36.187Z,100610.84
2023-05-02T13:20:04.112Z,100617.06
2023-05-02T13:22:31.656Z,100616.09
2023-05-02T13:24:58.716Z,100620.34
2023-05-02T13:27:26.329Z,100627.53
2023-05-02T13:29:53.417Z,100630.31
2023-05-02T13:32:22.008Z,100628.81
2023-05-02T13:34:49.334Z,100633.19
2023-05-02T13:37:16.515Z,100643.53
2023-05-02T13:39:43.778Z,100645.47
2023-05-02T13:42:10.979Z,100640.81
2023-05-02T13:44:38.168Z,100648.97
2023-05-02T13:47:05.299Z,100641.19
2023-05-02T13:49:32.517Z,100654.25
2023-05-02T13:51:59.641Z,100651.78
2023-05-02T13:54:26.933Z,100667.38
2023-05-02T13:56:54.162Z,100673.69
2023-05-02T13:59:21.287Z,100674.84
2023-05-02T14:01:48.389Z,100672.50
2023-05-02T14:04:15.574Z,100680.66
2023-05-02T14:06:42.776Z,100683.75
2023-05-02T14:09:10.099Z,100680.53
2023-05-02T14:11:37.241Z,100688.66
2023-05-02T14:14:04.227Z,100694.94
2023-05-02T14:16:31.430Z,100694.34
2023-05-02T14:18:58.667Z,100698.31
2023-05-02T14:21:25.721Z,100699.50
2023-05-02T14:23:52.813Z,100704.00
2023-05-02T14:26:20.612Z,100716.28
2023-05-02T14:28:47.788Z,100712.09
2023-05-02T14:31:15.076Z,100713.00
2023-05-02T14:33:42.239Z,100716.63
2023-05-02T14:36:09.485Z,100723.66
2023-05-02T14:38:36.727Z,100726.97
2023-05-02T14:41:03.900Z,100728.41
2023-05-02T14:43:31.257Z,100723.19
2023-05-02T14:45:59.093Z,100726.63
2023-05-02T14:48:26.548Z,100745.47
2023-05-02T14:50:54.058Z,100744.50
2023-05-02T14:53:21.585Z,100740.97
2023-05-02T14:55:48.696Z,100749.06
2023-05-02T14:58:20.874Z,100749.91
2023-05-02T15:00:48.405Z,100744.91
2023-05-02T15:03:15.898Z,100757.22
2023-05-02T15:05:43.141Z,100749.50
2023-05-02T15:08:10.437Z,100754.00
2023-05-02T15:10:38.882Z,100768.78
2023-05-02T15:13:06.888Z,100767.00
2023-05-02T15:15:34.167Z,100771.31
2023-05-02T15:18:01.345Z,100771.31
2023-05-02T15:20:28.453Z,100766.94
2023-05-02T15:22:55.770Z,100763.66
2023-05-02T15:25:22.912Z,100776.16
2023-05-02T15:27:50.459Z,100785.91
2023-05-02T15:30:18.061Z,100785.38
2023-05-02T15:32:45.391Z,100781.94
2023-05-02T15:35:12.713Z,100792.53
2023-05-02T15:37:39.902Z,100797.81
2023-05-02T15:40:07.787Z,100802.25
2023-05-02T15:42:37.023Z,100800.78
2023-05-02T15:45:04.884Z,100812.22
2023-05-02T15:47:32.105Z,100819.22
2023-05-02T15:49:59.927Z,100822.75
2023-05-02T15:52:27.400Z,100816.72
2023-05-02T15:54:56.332Z,100810.72
2023-05-02T15:57:23.636Z,100825.38
2023-05-02T15:59:50.941Z,100824.63
2023-05-02T16:02:18.178Z,100823.84
2023-05-02T16:04:45.487Z,100829.84
2023-05-02T16:07:12.692Z,100831.66
2023-05-02T16:09:40.371Z,100836.16
2023-05-02T16:12:07.665Z,100838.91
2023-05-02T16:14:35.152Z,100842.66
2023-05-02T16:17:02.340Z,100844.63
2023-05-02T16:19:29.498Z,100838.69
2023-05-02T16:21:56.732Z,100841.44
2023-05-02T16:24:24.112Z,100839.75
2023-05-02T16:26:51.292Z,100830.88
2023-05-02T16:29:18.522Z,100841.16
2023-05-02T16:31:45.635Z,100840.94
2023-05-02T16:34:12.865Z,100840.91
2023-05-02T16:36:40.168Z,100845.19
2023-05-02T16:39:07.331Z,100846.00
2023-05-02T16:41:37.328Z,100844.41
2023-05-02T16:44:04.649Z,100851.44
2023-05-02T16:46:32.010Z,100848.06
2023-05-02T16:48:59.235Z,100851.66
2023-05-02T16:51:26.652Z,100855.19
2023-05-02T16:53:53.743Z,100858.78
2023-05-02T16:56:21.674Z,100855.25
2023-05-02T16:58:49.066Z,100853.56
2023-05-02T17:01:16.256Z,100866.47
2023-05-02T17:03:43.507Z,100866.53
2023-05-02T17:06:10.674Z,100872.75
2023-05-02T17:08:38.264Z,100871.03
2023-05-02T17:11:05.761Z,100872.88
2023-05-02T17:13:33.016Z,100872.16
2023-05-02T17:16:01.228Z,100880.91
2023-05-02T17:18:28.470Z,100875.81
2023-05-02T17:20:56.110Z,100885.41
2023-05-02T17:23:23.292Z,100875.09
2023-05-02T17:25:51.776Z,100882.19
2023-05-02T17:28:20.206Z,100887.59
2023-05-02T17:30:48.574Z,100885.84
2023-05-02T17:33:16.131Z,100893.78
2023-05-02T17:35:43.297Z,100895.66
2023-05-02T17:38:10.572Z,100888.84
2023-05-02T17:40:38.232Z,100903.66
2023-05-02T17:43:05.822Z,100905.53
2023-05-02T17:45:33.088Z,100909.09
2023-05-02T17:48:02.040Z,100905.69
2023-05-02T17:50:30.836Z,100909.25
2023-05-02T17:52:58.866Z,100911.97
2023-05-02T17:55:26.296Z,100922.47
2023-05-02T17:57:53.578Z,100925.13
2023-05-02T18:00:20.968Z,100914.88
2023-05-02T18:02:48.088Z,100929.56
2023-05-02T18:05:15.421Z,100929.63
2023-05-02T18:07:42.556Z,100932.31
2023-05-02T18:10:10.021Z,100942.75
2023-05-02T18:12:37.157Z,100941.16
2023-05-02T18:15:06.048Z,100937.75
2023-05-02T18:17:33.578Z,100942.97
2023-05-02T18:20:01.156Z,100952.56
2023-05-02T18:22:28.796Z,100956.97
2023-05-02T18:24:55.967Z,100963.06
2023-05-02T18:27:23.206Z,100964.84
2023-05-02T18:29:50.332Z,100969.22
2023-05-02T18:32:17.589Z,100968.44
2023-05-02T18:34:44.689Z,100978.91
2023-05-02T18:37:11.852Z,100972.88
2023-05-02T18:39:38.967Z,100983.28
2023-05-02T18:42:06.368Z,100989.41
2023-05-02T18:44:33.461Z,100983.41
2023-05-02T18:47:01.278Z,100987.72
2023-05-02T18:49:28.627Z,100979.09
2023-05-02T18:51:55.758Z,100990.38
2023-05-02T18:54:26.637Z,101001.59
2023-05-02T18:56:53.790Z,100999.91
2023-05-02T18:59:21.292Z,101006.81
2023-05-02T19:01:48.829Z,101004.22
2023-05-02T19:04:16.075Z,101016.38
2023-05-02T19:06:43.295Z,101020.69
2023-05-02T19:09:12.562Z,101033.66
2023-05-02T19:11:40.651Z,101033.69
2023-05-02T19:14:08.050Z,101037.16
2023-05-02T19:16:36.296Z,101032.03
2023-05-02T19:19:03.900Z,101052.78
2023-05-02T19:21:31.777Z,101051.09
2023-05-02T19:23:59.516Z,101052.84
2023-05-02T19:26:26.601Z,101060.66
2023-05-02T19:28:53.837Z,101056.34
2023-05-02T19:31:21.560Z,101060.69
2023-05-02T19:33:52.214Z,101058.09
2023-05-02T19:36:20.529Z,101063.28
2023-05-02T19:38:49.332Z,101069.38
2023-05-02T19:41:17.148Z,101066.78
2023-05-02T19:43:44.912Z,101065.97
2023-05-02T19:46:12.137Z,101073.75
2023-05-02T19:48:39.258Z,101080.69
2023-05-02T19:51:07.054Z,101072.09
2023-05-02T19:53:35.739Z,101072.97
2023-05-02T19:56:05.535Z,101071.25
2023-05-02T19:58:33.005Z,101072.97
2023-05-02T20:01:00.611Z,101079.03
2023-05-02T20:03:27.951Z,101092.91
2023-05-02T20:05:57.541Z,101098.97
2023-05-02T20:08:27.940Z,101101.53
2023-05-02T20:10:57.081Z,101097.22
2023-05-02T20:13:24.113Z,101108.47
2023-05-02T20:15:52.037Z,101112.81
2023-05-02T20:18:19.511Z,101092.91
2023-05-02T20:20:46.939Z,101101.59
2023-05-02T20:23:14.351Z,101108.50
2023-05-02T20:25:42.886Z,101108.53
2023-05-02T20:28:10.549Z,101117.19
2023-05-02T20:30:39.288Z,101119.78
2023-05-02T20:33:14.805Z,101122.38
2023-05-02T20:35:43.072Z,101120.69
2023-05-02T20:38:10.450Z,101121.53
2023-05-02T20:40:42.827Z,101124.97
2023-05-02T20:43:10.078Z,101129.31
2023-05-02T20:45:38.842Z,101118.09
2023-05-02T20:48:06.701Z,101124.13
2023-05-02T20:50:34.016Z,101120.66
2023-05-02T20:53:01.256Z,101113.75
2023-05-02T20:55:28.540Z,101125.84
2023-05-02T20:57:55.774Z,101128.44
2023-05-02T21:00:23.000Z,101139.72
2023-05-02T21:02:50.342Z,101136.22
2023-05-02T21:05:17.813Z,101142.28
2023-05-02T21:07:45.181Z,101144.88
2023-05-02T21:10:12.400Z,101153.53
2023-05-02T21:12:39.673Z,101149.22
2023-05-02T21:15:07.896Z,101154.41
2023-05-02T21:17:35.216Z,101145.75
2023-05-02T21:20:02.772Z,101163.94
2023-05-02T21:22:30.111Z,101157.91
2023-05-02T21:24:57.297Z,101158.78
2023-05-02T21:27:24.482Z,101158.78
2023-05-02T21:29:51.619Z,101163.97
2023-05-02T21:32:18.862Z,101163.97
2023-05-02T21:34:46.049Z,101157.94
2023-05-02T21:37:13.211Z,101165.69
2023-05-02T21:39:40.415Z,101170.88
2023-05-02T21:42:07.575Z,101168.28
2023-05-02T21:44:34.679Z,101181.28
2023-05-02T21:47:01.814Z,101170.84
2023-05-02T21:49:31.894Z,101173.47
2023-05-02T21:51:59.020Z,101193.31
2023-05-02T21:54:26.161Z,101195.06
2023-05-02T21:56:54.301Z,101201.97
2023-05-02T21:59:21.417Z,101201.09
2023-05-02T22:01:48.607Z,101201.06
2023-05-02T22:04:16.430Z,101206.28
2023-05-02T22:06:43.886Z,101203.69
2023-05-02T22:09:11.499Z,101203.69
2023-05-02T22:11:38.706Z,101205.41
2023-05-02T22:14:06.122Z,101200.22
2023-05-02T22:16:33.295Z,101210.59
2023-05-02T22:19:01.357Z,101216.66
2023-05-02T22:21:29.128Z,101219.22
2023-05-02T22:23:56.407Z,101209.72
2023-05-02T22:26:23.770Z,101216.59
2023-05-02T22:28:51.222Z,101224.41
2023-05-02T22:31:19.475Z,101222.66
2023-05-02T22:33:50.082Z,101215.75
2023-05-02T22:36:18.110Z,101227.84
2023-05-02T22:38:46.504Z,101230.41
2023-05-02T22:41:13.775Z,101240.78
2023-05-02T22:43:40.823Z,101233.84
2023-05-02T22:46:08.021Z,101243.34
2023-05-02T22:48:35.252Z,101239.88
2023-05-02T22:51:02.371Z,101246.78
2023-05-02T22:53:30.298Z,101245.03
2023-05-02T22:55:57.349Z,101239.84
2023-05-02T22:58:24.553Z,101238.09
2023-05-02T23:00:51.987Z,101245.88
2023-05-02T23:03:19.156Z,101252.81
2023-05-02T23:05:46.329Z,101255.38
2023-05-02T23:08:13.578Z,101252.78
2023-05-02T23:10:40.713Z,101252.78
2023-05-02T23:13:07.835Z,101250.19
2023-05-02T23:15:34.942Z,101252.75
2023-05-02T23:18:02.076Z,101258.78
2023-05-02T23:20:29.508Z,101250.13
2023-05-02T23:22:56.787Z,101263.97
2023-05-02T23:25:27.233Z,101257.06
2023-05-02T23:27:54.113Z,101262.22
2023-05-02T23:30:21.975Z,101256.16
2023-05-02T23:32:49.112Z,101258.78
2023-05-02T23:35:16.367Z,101270.00
2023-05-02T23:37:44.243Z,101258.75
2023-05-02T23:40:11.643Z,101267.41
2023-05-02T23:42:40.388Z,101273.44
2023-05-02T23:45:12.010Z,101272.59
2023-05-02T23:47:39.115Z,101270.84
2023-05-02T23:50:06.764Z,101272.59
2023-05-02T23:52:34.080Z,101275.16
2023-05-02T23:55:01.284Z,101270.84
2023-05-02T23:57:31.154Z,101271.72
2023-05-02T23:59:58.278Z,101278.63
